createdAt,value
2022-08-26T00:02:01.628Z,25.99
2022-08-26T00:04:30.253Z,25.98
2022-08-26T00:06:58.543Z,25.95
2022-08-26T00:09:27.357Z,25.94
2022-08-26T00:11:56.026Z,25.91
2022-08-26T00:14:30.778Z,25.92
2022-08-26T00:16:59.931Z,25.86
2022-08-26T00:19:28.553Z,25.83
2022-08-26T00:21:56.989Z,25.79
2022-08-26T00:24:25.671Z,25.76
2022-08-26T00:27:19.072Z,25.69
2022-08-26T00:29:54.742Z,25.69
2022-08-26T00:32:25.316Z,25.64
2022-08-26T00:34:54.358Z,25.57
2022-08-26T00:37:22.695Z,25.56
2022-08-26T00:39:53.472Z,25.51
2022-08-26T00:42:22.203Z,25.48
2022-08-26T00:44:52.684Z,25.47
2022-08-26T00:47:25.693Z,25.44
2022-08-26T00:50:01.927Z,25.38
2022-08-26T00:52:31.090Z,25.34
2022-08-26T00:55:05.178Z,25.33
2022-08-26T00:57:35.892Z,25.27
2022-08-26T01:00:11.055Z,25.26
2022-08-26T01:02:40.542Z,25.21
2022-08-26T01:05:15.757Z,25.16
2022-08-26T01:07:45.164Z,25.13
2022-08-26T01:10:18.021Z,25.11
2022-08-26T01:12:49.346Z,25.10
2022-08-26T01:15:23.424Z,25.04
2022-08-26T01:17:52.226Z,25.01
2022-08-26T01:20:29.068Z,25.01
2022-08-26T01:23:01.702Z,24.99
2022-08-26T01:25:34.709Z,24.96
2022-08-26T01:28:10.482Z,24.93
2022-08-26T01:30:40.954Z,24.89
2022-08-26T01:33:14.211Z,24.89
2022-08-26T01:35:46.499Z,24.83
2022-08-26T01:38:19.360Z,24.83
2022-08-26T01:40:48.520Z,24.80
2022-08-26T01:43:23.565Z,24.80
2022-08-26T01:45:54.761Z,24.76
2022-08-26T01:48:28.384Z,24.74
2022-08-26T01:50:57.527Z,24.72
2022-08-26T01:53:28.369Z,24.72
2022-08-26T01:56:00.530Z,24.69
2022-08-26T01:58:34.279Z,24.66
2022-08-26T02:01:03.836Z,24.63
2022-08-26T02:03:33.920Z,24.60
2022-08-26T02:06:09.365Z,24.59
2022-08-26T02:08:43.379Z,24.56
2022-08-26T02:11:12.900Z,24.54
2022-08-26T02:13:46.261Z,24.51
2022-08-26T02:16:17.674Z,24.49
2022-08-26T02:18:47.364Z,24.45
2022-08-26T02:21:16.028Z,24.41
2022-08-26T02:23:46.508Z,24.41
2022-08-26T02:26:18.136Z,24.37
2022-08-26T02:28:52.761Z,24.36
2022-08-26T02:31:21.332Z,24.31
2022-08-26T02:33:50.855Z,24.29
2022-08-26T02:36:21.946Z,24.28
2022-08-26T02:38:52.192Z,24.26
2022-08-26T02:41:20.495Z,24.20
2022-08-26T02:43:51.446Z,24.18
2022-08-26T02:46:27.887Z,24.16
2022-08-26T02:48:58.895Z,24.13
2022-08-26T02:51:26.971Z,24.11
2022-08-26T02:53:56.973Z,24.10
2022-08-26T02:56:25.651Z,24.05
2022-08-26T02:59:55.305Z,23.99
2022-08-26T03:02:24.139Z,23.95
2022-08-26T03:04:57.918Z,23.94
2022-08-26T03:07:29.279Z,23.91
2022-08-26T03:10:00.821Z,23.93
2022-08-26T03:12:29.982Z,23.86
2022-08-26T03:14:58.187Z,23.85
2022-08-26T03:17:26.873Z,23.83
2022-08-26T03:19:57.199Z,23.82
2022-08-26T03:22:27.007Z,23.81
2022-08-26T03:24:55.910Z,23.80
2022-08-26T03:27:25.917Z,23.80
2022-08-26T03:30:12.032Z,23.76
2022-08-26T03:32:41.558Z,23.75
2022-08-26T03:35:10.812Z,23.75
2022-08-26T03:37:39.720Z,23.75
2022-08-26T03:40:10.552Z,23.77
2022-08-26T03:42:41.410Z,23.76
2022-08-26T03:45:14.403Z,23.74
2022-08-26T03:48:09.716Z,23.71
2022-08-26T03:50:38.019Z,23.70
2022-08-26T03:53:07.455Z,23.70
2022-08-26T03:55:43.237Z,23.71
2022-08-26T03:58:12.622Z,23.71
2022-08-26T04:00:40.748Z,23.70
2022-08-26T04:03:09.956Z,23.70
2022-08-26T04:05:38.974Z,23.69
2022-08-26T04:08:07.432Z,23.69
2022-08-26T04:10:35.396Z,23.69
2022-08-26T04:13:03.343Z,23.67
2022-08-26T04:15:33.357Z,23.69
2022-08-26T04:18:02.764Z,23.68
2022-08-26T04:20:31.957Z,23.67
2022-08-26T04:23:00.136Z,23.68
2022-08-26T04:25:28.196Z,23.68
2022-08-26T04:27:58.468Z,23.67
2022-08-26T04:30:26.344Z,23.68
2022-08-26T04:32:55.809Z,23.71
2022-08-26T04:35:25.985Z,23.72
2022-08-26T04:37:55.300Z,23.75
2022-08-26T04:40:23.597Z,23.78
2022-08-26T04:42:51.622Z,23.82
2022-08-26T04:45:22.837Z,23.86
2022-08-26T04:47:56.362Z,23.90
2022-08-26T04:50:26.518Z,23.94
2022-08-26T04:52:55.337Z,23.98
2022-08-26T04:55:25.192Z,24.03
2022-08-26T04:58:08.724Z,24.04
2022-08-26T05:00:38.345Z,23.80
2022-08-26T05:03:10.207Z,24.10
2022-08-26T05:06:00.486Z,24.14
2022-08-26T05:08:28.348Z,24.16
2022-08-26T05:10:56.662Z,24.19
2022-08-26T05:13:26.744Z,24.22
2022-08-26T05:15:58.147Z,24.24
2022-08-26T05:18:31.226Z,24.27
2022-08-26T05:20:59.091Z,24.27
2022-08-26T05:23:26.906Z,24.30
2022-08-26T05:25:59.261Z,24.32
2022-08-26T05:28:30.746Z,24.34
2022-08-26T05:30:58.702Z,24.34
2022-08-26T05:33:26.664Z,24.35
2022-08-26T05:35:56.027Z,24.38
2022-08-26T05:38:24.814Z,24.37
2022-08-26T05:40:54.621Z,24.38
2022-08-26T05:43:48.215Z,24.36
2022-08-26T05:46:16.948Z,24.38
2022-08-26T05:48:45.628Z,24.39
2022-08-26T05:51:16.848Z,24.43
2022-08-26T05:53:54.610Z,24.42
2022-08-26T05:56:24.824Z,24.43
2022-08-26T05:58:53.136Z,24.44
2022-08-26T06:01:24.240Z,24.47
2022-08-26T06:03:54.209Z,24.45
2022-08-26T06:06:27.288Z,24.47
2022-08-26T06:08:59.431Z,24.43
2022-08-26T06:11:30.576Z,24.43
2022-08-26T06:14:03.745Z,24.42
2022-08-26T06:17:21.816Z,24.37
2022-08-26T06:19:51.392Z,24.33
2022-08-26T06:22:37.929Z,24.36
2022-08-26T06:25:35.669Z,24.32
2022-08-26T06:28:15.275Z,24.33
2022-08-26T06:30:43.335Z,24.29
2022-08-26T06:33:11.146Z,24.29
2022-08-26T06:35:40.301Z,24.29
2022-08-26T06:38:11.084Z,24.28
2022-08-26T06:40:42.357Z,24.29
2022-08-26T06:43:11.254Z,24.23
2022-08-26T06:45:39.533Z,24.24
2022-08-26T06:48:09.094Z,24.25
2022-08-26T06:50:37.841Z,24.24
2022-08-26T06:53:06.001Z,24.24
2022-08-26T06:55:41.558Z,24.27
2022-08-26T06:58:10.626Z,24.22
2022-08-26T07:01:11.392Z,24.20
2022-08-26T07:03:39.957Z,24.19
2022-08-26T07:06:08.794Z,24.22
2022-08-26T07:08:36.775Z,24.23
2022-08-26T07:11:08.107Z,24.25
2022-08-26T07:13:38.099Z,24.20
2022-08-26T07:16:06.791Z,24.21
2022-08-26T07:18:36.089Z,24.21
2022-08-26T07:21:06.762Z,24.22
2022-08-26T07:23:35.880Z,24.20
2022-08-26T07:26:08.160Z,24.21
2022-08-26T07:28:35.922Z,23.90
2022-08-26T07:31:07.450Z,24.15
2022-08-26T07:33:39.036Z,24.17
2022-08-26T07:36:08.804Z,24.17
2022-08-26T07:38:38.741Z,24.16
2022-08-26T07:41:09.610Z,24.17
2022-08-26T07:43:38.104Z,24.14
2022-08-26T07:46:07.759Z,24.13
2022-08-26T07:48:36.360Z,24.13
2022-08-26T07:51:05.688Z,24.12
2022-08-26T07:53:36.090Z,24.14
2022-08-26T07:56:04.914Z,24.12
2022-08-26T07:58:34.378Z,24.12
2022-08-26T08:01:02.406Z,24.10
2022-08-26T08:03:32.718Z,24.09
2022-08-26T08:06:00.811Z,24.09
2022-08-26T08:08:29.069Z,24.08
2022-08-26T08:11:03.636Z,24.11
2022-08-26T08:13:35.640Z,24.08
2022-08-26T08:16:04.039Z,24.06
2022-08-26T08:18:32.227Z,24.06
2022-08-26T08:21:20.916Z,24.06
2022-08-26T08:23:50.220Z,24.04
2022-08-26T08:26:18.546Z,24.05
2022-08-26T08:28:48.416Z,24.07
2022-08-26T08:31:51.981Z,24.08
2022-08-26T08:34:10.358Z,24.04
2022-08-26T08:36:38.374Z,24.04
2022-08-26T08:39:07.115Z,24.04
2022-08-26T08:42:16.077Z,24.02
2022-08-26T08:44:52.231Z,24.03
2022-08-26T08:47:26.906Z,24.02
2022-08-26T08:49:57.169Z,24.01
2022-08-26T08:52:30.940Z,24.02
2022-08-26T08:54:59.347Z,23.98
2022-08-26T08:57:42.030Z,24.02
2022-08-26T09:00:18.291Z,24.01
2022-08-26T09:02:53.585Z,24.02
2022-08-26T09:05:24.879Z,24.01
2022-08-26T09:07:58.451Z,23.99
2022-08-26T09:10:36.160Z,24.03
2022-08-26T09:13:07.339Z,24.02
2022-08-26T09:15:51.741Z,24.03
2022-08-26T09:18:31.141Z,24.03
2022-08-26T09:21:03.326Z,24.03
2022-08-26T09:23:35.794Z,24.04
2022-08-26T09:26:14.866Z,24.02
2022-08-26T09:28:48.151Z,24.04
2022-08-26T09:31:27.505Z,24.05
2022-08-26T09:34:08.095Z,24.04
2022-08-26T09:36:41.178Z,24.03
2022-08-26T09:39:27.100Z,24.03
2022-08-26T09:42:09.468Z,24.04
2022-08-26T09:44:55.044Z,24.01
2022-08-26T09:47:30.156Z,24.02
2022-08-26T09:50:01.182Z,24.01
2022-08-26T09:52:30.538Z,23.98
2022-08-26T09:55:11.478Z,24.02
2022-08-26T09:57:48.476Z,24.02
2022-08-26T10:00:32.573Z,24.01
2022-08-26T10:03:04.576Z,24.01
2022-08-26T10:05:39.991Z,24.01
2022-08-26T10:08:23.916Z,24.01
2022-08-26T10:10:53.491Z,23.98
2022-08-26T10:13:26.965Z,24.02
2022-08-26T10:16:05.681Z,24.03
2022-08-26T10:19:00.142Z,23.99
2022-08-26T10:21:35.512Z,24.03
2022-08-26T10:24:04.724Z,24.04
2022-08-26T10:26:42.663Z,24.08
2022-08-26T10:30:11.869Z,24.06
2022-08-26T10:32:43.012Z,24.06
2022-08-26T10:35:16.139Z,24.09
2022-08-26T10:37:47.882Z,24.14
2022-08-26T10:40:24.579Z,24.18
2022-08-26T10:42:57.897Z,24.21
2022-08-26T10:45:30.297Z,24.24
2022-08-26T10:48:08.099Z,24.29
2022-08-26T10:50:41.417Z,24.32
2022-08-26T10:53:17.160Z,24.36
2022-08-26T10:55:51.775Z,24.39
2022-08-26T10:58:33.071Z,24.42
2022-08-26T11:01:27.081Z,24.43
2022-08-26T11:04:02.790Z,24.46
2022-08-26T11:06:33.200Z,24.50
2022-08-26T11:09:08.582Z,24.54
2022-08-26T11:11:46.839Z,24.57
2022-08-26T11:14:40.739Z,24.57
2022-08-26T11:17:56.477Z,24.60
2022-08-26T11:20:49.393Z,24.58
2022-08-26T11:23:50.784Z,24.64
2022-08-26T11:26:36.214Z,24.65
2022-08-26T11:29:12.061Z,24.74
2022-08-26T11:31:57.554Z,24.79
2022-08-26T11:34:55.195Z,24.82
2022-08-26T11:37:37.516Z,24.88
2022-08-26T11:40:14.061Z,24.93
2022-08-26T11:42:45.949Z,24.98
2022-08-26T11:45:20.438Z,25.01
2022-08-26T11:47:49.335Z,25.03
2022-08-26T11:50:21.469Z,25.10
2022-08-26T11:52:55.075Z,25.12
2022-08-26T11:55:25.196Z,25.16
2022-08-26T11:57:57.237Z,25.19
2022-08-26T12:00:28.107Z,25.20
2022-08-26T12:03:06.490Z,25.23
2022-08-26T12:05:39.450Z,25.27
2022-08-26T12:08:10.554Z,25.29
2022-08-26T12:10:40.462Z,25.31
2022-08-26T12:13:10.213Z,25.33
2022-08-26T12:15:38.501Z,25.34
2022-08-26T12:18:28.763Z,25.38
2022-08-26T12:21:00.378Z,25.38
2022-08-26T12:23:41.284Z,25.40
2022-08-26T12:26:19.864Z,25.39
2022-08-26T12:28:51.323Z,25.41
2022-08-26T12:31:27.203Z,25.41
2022-08-26T12:33:57.392Z,25.42
2022-08-26T12:36:31.626Z,25.41
2022-08-26T12:39:08.611Z,25.46
2022-08-26T12:41:45.127Z,25.47
2022-08-26T12:44:32.384Z,25.45
2022-08-26T12:47:05.108Z,25.48
2022-08-26T12:49:33.291Z,25.47
2022-08-26T12:52:01.434Z,25.47
2022-08-26T12:54:51.534Z,25.48
2022-08-26T12:57:30.320Z,25.49
2022-08-26T13:00:28.397Z,25.48
2022-08-26T13:02:56.928Z,25.47
2022-08-26T13:05:27.740Z,25.53
2022-08-26T13:08:13.343Z,25.53
2022-08-26T13:10:43.267Z,25.54
2022-08-26T13:13:12.942Z,25.56
2022-08-26T13:15:41.417Z,25.57
2022-08-26T13:18:09.375Z,25.58
2022-08-26T13:20:44.106Z,25.63
2022-08-26T13:23:41.913Z,25.58
2022-08-26T13:26:10.605Z,25.59
2022-08-26T13:28:40.207Z,25.64
2022-08-26T13:31:08.825Z,25.63
2022-08-26T13:33:40.088Z,25.65
2022-08-26T13:36:09.904Z,25.63
2022-08-26T13:38:43.248Z,25.66
2022-08-26T13:41:17.225Z,25.61
2022-08-26T13:43:59.650Z,25.61
2022-08-26T13:46:29.186Z,25.57
2022-08-26T13:49:13.330Z,25.57
2022-08-26T13:51:42.983Z,25.54
2022-08-26T13:54:11.076Z,25.51
2022-08-26T13:56:39.434Z,25.48
2022-08-26T13:59:09.175Z,25.48
2022-08-26T14:01:40.103Z,25.44
2022-08-26T14:04:08.650Z,25.41
2022-08-26T14:06:37.531Z,25.37
2022-08-26T14:09:05.980Z,25.35
2022-08-26T14:11:50.911Z,25.33
2022-08-26T14:14:23.515Z,25.30
2022-08-26T14:16:59.681Z,25.26
2022-08-26T14:19:29.981Z,25.23
2022-08-26T14:22:00.787Z,25.20
2022-08-26T14:24:29.526Z,25.15
2022-08-26T14:26:57.729Z,25.13
2022-08-26T14:29:27.465Z,25.12
2022-08-26T14:31:58.664Z,25.10
2022-08-26T14:34:29.956Z,25.03
2022-08-26T14:36:57.983Z,25.00
2022-08-26T14:39:35.874Z,24.99
2022-08-26T14:42:03.856Z,24.96
2022-08-26T14:44:34.341Z,24.95
2022-08-26T14:47:06.069Z,24.93
2022-08-26T14:49:34.214Z,24.86
2022-08-26T14:52:02.642Z,24.85
2022-08-26T14:54:30.875Z,24.85
2022-08-26T14:57:04.895Z,24.86
2022-08-26T14:59:37.052Z,24.88
2022-08-26T15:02:05.213Z,24.58
2022-08-26T15:04:36.008Z,24.85
2022-08-26T15:07:04.826Z,24.92
2022-08-26T15:09:44.182Z,24.97
2022-08-26T15:12:11.902Z,24.69
2022-08-26T15:14:41.226Z,25.03
2022-08-26T15:17:09.331Z,25.07
2022-08-26T15:19:55.603Z,25.11
2022-08-26T15:22:24.231Z,25.13
2022-08-26T15:24:57.838Z,25.17
2022-08-26T15:27:25.913Z,25.20
2022-08-26T15:29:55.465Z,25.25
2022-08-26T15:32:23.578Z,25.24
2022-08-26T15:34:53.015Z,25.25
2022-08-26T15:37:21.150Z,25.27
2022-08-26T15:39:49.536Z,25.27
2022-08-26T15:42:17.579Z,25.27
2022-08-26T15:44:46.517Z,25.28
2022-08-26T15:47:16.265Z,25.29
2022-08-26T15:49:44.179Z,25.25
2022-08-26T15:52:12.219Z,25.24
2022-08-26T15:54:41.007Z,25.23
2022-08-26T15:57:11.504Z,25.22
2022-08-26T15:59:40.774Z,25.17
2022-08-26T16:02:09.184Z,25.16
2022-08-26T16:04:38.637Z,25.16
2022-08-26T16:07:06.834Z,25.12
2022-08-26T16:09:34.910Z,25.10
2022-08-26T16:12:03.142Z,25.08
2022-08-26T16:14:32.361Z,25.06
2022-08-26T16:17:00.538Z,25.03
2022-08-26T16:19:28.544Z,25.01
2022-08-26T16:21:57.920Z,25.02
2022-08-26T16:24:30.192Z,24.98
2022-08-26T16:26:58.688Z,24.95
2022-08-26T16:29:26.723Z,24.93
2022-08-26T16:31:55.147Z,24.92
2022-08-26T16:34:23.537Z,24.90
2022-08-26T16:36:52.376Z,24.88
2022-08-26T16:39:21.813Z,24.87
2022-08-26T16:41:50.454Z,24.84
2022-08-26T16:44:19.238Z,24.82
2022-08-26T16:46:49.578Z,24.82
2022-08-26T16:49:17.691Z,24.78
2022-08-26T16:51:45.756Z,24.76
2022-08-26T16:54:13.914Z,24.74
2022-08-26T16:56:43.299Z,24.73
2022-08-26T16:59:12.234Z,24.70
2022-08-26T17:01:40.601Z,24.67
2022-08-26T17:04:08.919Z,24.64
2022-08-26T17:06:37.014Z,24.61
2022-08-26T17:09:05.503Z,24.57
2022-08-26T17:11:33.986Z,24.54
2022-08-26T17:14:03.738Z,24.54
2022-08-26T17:16:31.768Z,24.49
2022-08-26T17:19:00.922Z,24.48
2022-08-26T17:21:29.726Z,24.45
2022-08-26T17:23:57.694Z,24.42
2022-08-26T17:26:25.810Z,24.41
2022-08-26T17:28:54.102Z,24.39
2022-08-26T17:31:24.497Z,24.38
2022-08-26T17:33:53.755Z,24.33
2022-08-26T17:36:28.091Z,24.33
2022-08-26T17:38:57.767Z,24.30
2022-08-26T17:41:26.672Z,24.28
2022-08-26T17:43:54.822Z,24.24
2022-08-26T17:46:25.460Z,24.24
2022-08-26T17:48:53.925Z,24.20
2022-08-26T17:51:22.948Z,24.18
2022-08-26T17:53:51.890Z,24.16
2022-08-26T17:56:24.002Z,24.14
2022-08-26T17:58:51.973Z,23.83
2022-08-26T18:01:21.096Z,24.06
2022-08-26T18:03:51.062Z,24.08
2022-08-26T18:06:21.051Z,24.05
2022-08-26T18:08:49.301Z,24.03
2022-08-26T18:11:19.639Z,24.02
2022-08-26T18:13:48.208Z,23.99
2022-08-26T18:16:18.082Z,23.97
2022-08-26T18:18:47.631Z,23.94
2022-08-26T18:21:19.456Z,23.94
2022-08-26T18:23:48.598Z,23.88
2022-08-26T18:26:18.442Z,23.88
2022-08-26T18:28:46.628Z,23.84
2022-08-26T18:31:15.333Z,23.81
2022-08-26T18:33:44.148Z,23.80
2022-08-26T18:36:19.558Z,23.79
2022-08-26T18:38:50.461Z,23.74
2022-08-26T18:41:20.699Z,23.71
2022-08-26T18:43:50.398Z,23.69
2022-08-26T18:46:21.025Z,23.69
2022-08-26T18:48:50.846Z,23.65
2022-08-26T18:51:22.867Z,23.66
2022-08-26T18:54:01.927Z,23.62
2022-08-26T18:56:30.866Z,23.58
2022-08-26T18:58:59.803Z,23.57
2022-08-26T19:01:29.682Z,23.56
2022-08-26T19:03:58.619Z,23.52
2022-08-26T19:06:29.402Z,23.52
2022-08-26T19:08:57.946Z,23.48
2022-08-26T19:11:31.556Z,23.46
2022-08-26T19:14:01.783Z,23.45
2022-08-26T19:16:31.238Z,23.45
2022-08-26T19:19:00.996Z,23.42
2022-08-26T19:21:31.184Z,23.42
2022-08-26T19:24:00.951Z,23.39
2022-08-26T19:26:29.955Z,23.38
2022-08-26T19:28:58.897Z,23.38
2022-08-26T19:31:27.290Z,23.37
2022-08-26T19:33:56.700Z,23.36
2022-08-26T19:36:26.168Z,23.36
2022-08-26T19:38:56.728Z,23.35
2022-08-26T19:41:36.557Z,23.34
2022-08-26T19:44:08.392Z,23.32
2022-08-26T19:49:10.399Z,23.29
2022-08-26T19:51:38.665Z,23.27
2022-08-26T19:54:08.465Z,23.28
2022-08-26T19:56:36.671Z,23.25
2022-08-26T19:59:04.606Z,23.24
2022-08-26T20:01:32.797Z,23.23
2022-08-26T20:04:01.262Z,23.22
2022-08-26T20:06:29.249Z,23.20
2022-08-26T20:08:57.563Z,23.20
2022-08-26T20:11:27.223Z,23.20
2022-08-26T20:13:55.356Z,23.16
2022-08-26T20:16:23.409Z,23.15
2022-08-26T20:19:09.146Z,23.13
2022-08-26T20:21:39.902Z,23.12
2022-08-26T20:24:11.595Z,23.11
2022-08-26T20:26:44.030Z,23.09
2022-08-26T20:29:16.833Z,23.07
2022-08-26T20:31:45.837Z,23.02
2022-08-26T20:34:16.302Z,23.01
2022-08-26T20:36:45.562Z,22.97
2022-08-26T20:39:16.333Z,22.97
2022-08-26T20:41:46.320Z,22.93
2022-08-26T20:44:14.884Z,22.88
2022-08-26T20:46:43.321Z,22.85
2022-08-26T20:49:11.797Z,22.79
2022-08-26T20:51:43.043Z,22.76
2022-08-26T20:54:13.779Z,22.74
2022-08-26T20:56:55.227Z,22.70
2022-08-26T20:59:23.571Z,22.65
2022-08-26T21:01:54.574Z,22.62
2022-08-26T21:04:26.449Z,22.60
2022-08-26T21:06:55.734Z,22.53
2022-08-26T21:09:25.970Z,22.54
2022-08-26T21:11:56.706Z,22.53
2022-08-26T21:14:25.707Z,22.48
2022-08-26T21:16:54.779Z,22.48
2022-08-26T21:19:25.549Z,22.45
2022-08-26T21:22:54.963Z,22.43
2022-08-26T21:25:23.352Z,22.37
2022-08-26T21:27:53.099Z,22.40
2022-08-26T21:30:21.739Z,22.36
2022-08-26T21:32:50.578Z,22.34
2022-08-26T21:35:19.133Z,22.33
2022-08-26T21:37:47.609Z,22.32
2022-08-26T21:40:15.990Z,22.30
2022-08-26T21:42:44.335Z,22.28
2022-08-26T21:45:14.322Z,22.29
2022-08-26T21:47:42.664Z,22.26
2022-08-26T21:50:15.210Z,22.24
2022-08-26T21:52:45.074Z,22.22
2022-08-26T21:55:14.233Z,22.18
2022-08-26T21:57:42.535Z,22.08
2022-08-26T22:00:37.986Z,22.03
2022-08-26T22:03:06.431Z,21.95
2022-08-26T22:05:34.660Z,21.89
2022-08-26T22:08:03.324Z,21.83
2022-08-26T22:10:31.578Z,21.76
2022-08-26T22:12:59.959Z,21.69
2022-08-26T22:15:28.302Z,21.63
2022-08-26T22:17:58.022Z,21.57
2022-08-26T22:20:27.610Z,21.49
2022-08-26T22:22:55.759Z,21.44
2022-08-26T22:25:26.087Z,21.42
2022-08-26T22:27:55.377Z,21.34
2022-08-26T22:30:25.553Z,21.33
2022-08-26T22:32:55.995Z,21.27
2022-08-26T22:35:28.474Z,21.25
2022-08-26T22:37:59.193Z,21.19
2022-08-26T22:40:27.514Z,21.17
2022-08-26T22:43:00.347Z,21.15
2022-08-26T22:45:29.327Z,21.12
2022-08-26T22:47:57.675Z,21.12
2022-08-26T22:50:34.983Z,21.14
2022-08-26T22:53:03.921Z,21.12
2022-08-26T22:55:32.558Z,21.12
2022-08-26T22:58:01.380Z,21.11
2022-08-26T23:00:32.012Z,21.10
2022-08-26T23:03:01.368Z,21.09
2022-08-26T23:05:51.938Z,21.08
2022-08-26T23:08:27.004Z,21.02
2022-08-26T23:10:55.388Z,21.02
2022-08-26T23:13:23.745Z,21.00
2022-08-26T23:16:01.703Z,21.01
2022-08-26T23:18:30.196Z,20.94
2022-08-26T23:20:59.811Z,20.95
2022-08-26T23:23:28.431Z,20.91
2022-08-26T23:25:57.377Z,20.90
2022-08-26T23:28:26.595Z,20.90
2022-08-26T23:30:55.743Z,20.89
2022-08-26T23:33:24.281Z,20.89
2022-08-26T23:35:51.555Z,20.88
2022-08-26T23:38:24.591Z,20.91
2022-08-26T23:40:53.184Z,20.87
2022-08-26T23:43:21.446Z,20.89
2022-08-26T23:45:49.964Z,20.89
2022-08-26T23:48:18.487Z,20.88
2022-08-26T23:51:05.731Z,20.89
2022-08-26T23:53:35.980Z,20.87
2022-08-26T23:56:04.842Z,20.87
2022-08-26T23:58:33.806Z,20.86
